sensor_id;sensor_type;location;lat;lon;timestamp;P1;durP1;ratioP1;P2;durP2;ratioP2
789;SDS011;378;48.844;9.156;2023-09-08T00:02:22;12.60;;;7.28;;
789;SDS011;378;48.844;9.156;2023-09-08T00:04:50;11.32;;;7.00;;
789;SDS011;378;48.844;9.156;2023-09-08T00:07:17;11.10;;;6.20;;
789;SDS011;378;48.844;9.156;2023-09-08T00:09:44;9.93;;;6.30;;
789;SDS011;378;48.844;9.156;2023-09-08T00:12:11;10.10;;;6.38;;
789;SDS011;378;48.844;9.156;2023-09-08T00:14:38;9.07;;;5.93;;
789;SDS011;378;48.844;9.156;2023-09-08T00:17:05;12.98;;;6.20;;
789;SDS011;378;48.844;9.156;2023-09-08T00:19:32;10.75;;;6.13;;
789;SDS011;378;48.844;9.156;2023-09-08T00:22:00;11.20;;;6.32;;
789;SDS011;378;48.844;9.156;2023-09-08T00:24:28;9.68;;;5.93;;
789;SDS011;378;48.844;9.156;2023-09-08T00:26:54;8.60;;;5.85;;
789;SDS011;378;48.844;9.156;2023-09-08T00:29:21;11.23;;;6.30;;
789;SDS011;378;48.844;9.156;2023-09-08T00:31:48;9.50;;;6.30;;
789;SDS011;378;48.844;9.156;2023-09-08T00:34:15;11.90;;;6.90;;
789;SDS011;378;48.844;9.156;2023-09-08T00:36:42;10.77;;;5.90;;
789;SDS011;378;48.844;9.156;2023-09-08T00:39:10;9.00;;;5.75;;
789;SDS011;378;48.844;9.156;2023-09-08T00:41:37;9.60;;;6.18;;
789;SDS011;378;48.844;9.156;2023-09-08T00:44:04;9.30;;;6.30;;
789;SDS011;378;48.844;9.156;2023-09-08T00:46:33;10.00;;;6.07;;
789;SDS011;378;48.844;9.156;2023-09-08T00:49:09;8.85;;;5.80;;
789;SDS011;378;48.844;9.156;2023-09-08T00:51:36;11.43;;;6.32;;
789;SDS011;378;48.844;9.156;2023-09-08T00:54:04;9.95;;;6.45;;
789;SDS011;378;48.844;9.156;2023-09-08T00:56:33;12.02;;;6.10;;
789;SDS011;378;48.844;9.156;2023-09-08T00:59:00;10.13;;;6.10;;
789;SDS011;378;48.844;9.156;2023-09-08T01:01:28;9.55;;;5.80;;
789;SDS011;378;48.844;9.156;2023-09-08T01:03:55;12.57;;;6.43;;
789;SDS011;378;48.844;9.156;2023-09-08T01:06:22;10.35;;;6.35;;
789;SDS011;378;48.844;9.156;2023-09-08T01:08:49;10.85;;;6.50;;
789;SDS011;378;48.844;9.156;2023-09-08T01:11:16;11.80;;;5.95;;
789;SDS011;378;48.844;9.156;2023-09-08T01:13:46;14.10;;;6.57;;
789;SDS011;378;48.844;9.156;2023-09-08T01:16:13;10.85;;;5.95;;
789;SDS011;378;48.844;9.156;2023-09-08T01:18:40;11.02;;;6.43;;
789;SDS011;378;48.844;9.156;2023-09-08T01:24:16;11.88;;;6.53;;
789;SDS011;378;48.844;9.156;2023-09-08T01:26:55;8.57;;;6.13;;
789;SDS011;378;48.844;9.156;2023-09-08T01:29:23;12.07;;;6.50;;
789;SDS011;378;48.844;9.156;2023-09-08T01:31:50;10.60;;;6.15;;
789;SDS011;378;48.844;9.156;2023-09-08T01:34:17;9.57;;;6.00;;
789;SDS011;378;48.844;9.156;2023-09-08T01:36:44;9.00;;;5.50;;
789;SDS011;378;48.844;9.156;2023-09-08T01:39:11;11.73;;;6.25;;
789;SDS011;378;48.844;9.156;2023-09-08T01:41:38;9.20;;;5.70;;
789;SDS011;378;48.844;9.156;2023-09-08T01:44:07;12.48;;;6.45;;
789;SDS011;378;48.844;9.156;2023-09-08T01:46:35;10.82;;;6.75;;
789;SDS011;378;48.844;9.156;2023-09-08T01:49:03;11.32;;;6.40;;
789;SDS011;378;48.844;9.156;2023-09-08T01:51:30;15.13;;;6.55;;
789;SDS011;378;48.844;9.156;2023-09-08T01:53:57;11.10;;;6.70;;
789;SDS011;378;48.844;9.156;2023-09-08T01:56:24;15.18;;;7.45;;
789;SDS011;378;48.844;9.156;2023-09-08T01:58:51;14.18;;;7.85;;
789;SDS011;378;48.844;9.156;2023-09-08T02:01:19;10.68;;;6.93;;
789;SDS011;378;48.844;9.156;2023-09-08T02:03:46;10.85;;;6.57;;
789;SDS011;378;48.844;9.156;2023-09-08T02:06:13;9.98;;;6.60;;
789;SDS011;378;48.844;9.156;2023-09-08T02:08:39;13.00;;;6.90;;
789;SDS011;378;48.844;9.156;2023-09-08T02:11:06;15.77;;;7.90;;
789;SDS011;378;48.844;9.156;2023-09-08T02:13:33;12.20;;;7.43;;
789;SDS011;378;48.844;9.156;2023-09-08T02:16:00;16.10;;;7.75;;
789;SDS011;378;48.844;9.156;2023-09-08T02:18:28;12.82;;;7.38;;
789;SDS011;378;48.844;9.156;2023-09-08T02:20:55;15.68;;;7.78;;
789;SDS011;378;48.844;9.156;2023-09-08T02:23:22;12.23;;;7.93;;
789;SDS011;378;48.844;9.156;2023-09-08T02:25:49;10.35;;;6.78;;
789;SDS011;378;48.844;9.156;2023-09-08T02:28:15;13.10;;;7.03;;
789;SDS011;378;48.844;9.156;2023-09-08T02:30:42;11.10;;;6.60;;
789;SDS011;378;48.844;9.156;2023-09-08T02:33:09;8.77;;;5.95;;
789;SDS011;378;48.844;9.156;2023-09-08T02:35:39;10.10;;;6.47;;
789;SDS011;378;48.844;9.156;2023-09-08T02:38:06;10.25;;;6.40;;
789;SDS011;378;48.844;9.156;2023-09-08T02:40:33;11.35;;;6.78;;
789;SDS011;378;48.844;9.156;2023-09-08T02:42:59;13.40;;;7.00;;
789;SDS011;378;48.844;9.156;2023-09-08T02:45:26;10.57;;;6.22;;
789;SDS011;378;48.844;9.156;2023-09-08T02:47:53;12.13;;;6.88;;
789;SDS011;378;48.844;9.156;2023-09-08T02:50:20;13.73;;;6.80;;
789;SDS011;378;48.844;9.156;2023-09-08T02:52:49;9.13;;;5.95;;
789;SDS011;378;48.844;9.156;2023-09-08T02:55:16;13.43;;;6.18;;
789;SDS011;378;48.844;9.156;2023-09-08T02:57:42;12.55;;;7.20;;
789;SDS011;378;48.844;9.156;2023-09-08T03:00:09;10.18;;;6.70;;
789;SDS011;378;48.844;9.156;2023-09-08T03:02:37;10.32;;;6.40;;
789;SDS011;378;48.844;9.156;2023-09-08T03:05:04;9.75;;;6.53;;
789;SDS011;378;48.844;9.156;2023-09-08T03:07:31;9.98;;;6.03;;
789;SDS011;378;48.844;9.156;2023-09-08T03:10:00;11.77;;;6.82;;
789;SDS011;378;48.844;9.156;2023-09-08T03:12:26;12.43;;;6.28;;
789;SDS011;378;48.844;9.156;2023-09-08T03:14:54;10.13;;;6.90;;
789;SDS011;378;48.844;9.156;2023-09-08T03:17:21;12.13;;;7.10;;
789;SDS011;378;48.844;9.156;2023-09-08T03:19:48;12.95;;;6.20;;
789;SDS011;378;48.844;9.156;2023-09-08T03:22:14;10.38;;;6.13;;
789;SDS011;378;48.844;9.156;2023-09-08T03:24:41;8.85;;;5.65;;
789;SDS011;378;48.844;9.156;2023-09-08T03:27:09;12.10;;;6.82;;
789;SDS011;378;48.844;9.156;2023-09-08T03:29:36;9.55;;;6.45;;
789;SDS011;378;48.844;9.156;2023-09-08T03:32:03;12.98;;;6.65;;
789;SDS011;378;48.844;9.156;2023-09-08T03:34:31;10.73;;;6.93;;
789;SDS011;378;48.844;9.156;2023-09-08T03:36:58;10.27;;;6.70;;
789;SDS011;378;48.844;9.156;2023-09-08T03:39:24;12.05;;;6.85;;
789;SDS011;378;48.844;9.156;2023-09-08T03:41:51;11.70;;;7.32;;
789;SDS011;378;48.844;9.156;2023-09-08T03:44:19;9.07;;;6.63;;
789;SDS011;378;48.844;9.156;2023-09-08T03:46:46;14.50;;;7.25;;
789;SDS011;378;48.844;9.156;2023-09-08T03:49:13;12.05;;;7.10;;
789;SDS011;378;48.844;9.156;2023-09-08T03:51:40;8.88;;;6.75;;
789;SDS011;378;48.844;9.156;2023-09-08T03:54:07;12.50;;;6.57;;
789;SDS011;378;48.844;9.156;2023-09-08T03:56:34;11.35;;;6.85;;
789;SDS011;378;48.844;9.156;2023-09-08T03:59:00;12.20;;;8.07;;
789;SDS011;378;48.844;9.156;2023-09-08T04:01:29;13.93;;;7.80;;
789;SDS011;378;48.844;9.156;2023-09-08T04:03:55;13.20;;;7.00;;
789;SDS011;378;48.844;9.156;2023-09-08T04:06:22;13.63;;;6.88;;
789;SDS011;378;48.844;9.156;2023-09-08T04:08:49;11.45;;;7.07;;
789;SDS011;378;48.844;9.156;2023-09-08T04:11:16;13.90;;;7.35;;
789;SDS011;378;48.844;9.156;2023-09-08T04:13:43;13.68;;;7.60;;
789;SDS011;378;48.844;9.156;2023-09-08T04:16:10;12.45;;;7.15;;
789;SDS011;378;48.844;9.156;2023-09-08T04:18:38;12.93;;;7.50;;
789;SDS011;378;48.844;9.156;2023-09-08T04:21:05;15.70;;;7.38;;
789;SDS011;378;48.844;9.156;2023-09-08T04:23:32;13.90;;;7.63;;
789;SDS011;378;48.844;9.156;2023-09-08T04:25:59;13.30;;;7.20;;
789;SDS011;378;48.844;9.156;2023-09-08T04:28:26;10.13;;;7.20;;
789;SDS011;378;48.844;9.156;2023-09-08T04:30:53;14.15;;;8.05;;
789;SDS011;378;48.844;9.156;2023-09-08T04:33:19;11.48;;;7.63;;
789;SDS011;378;48.844;9.156;2023-09-08T04:35:50;13.70;;;8.55;;
789;SDS011;378;48.844;9.156;2023-09-08T04:38:17;20.00;;;8.45;;
789;SDS011;378;48.844;9.156;2023-09-08T04:40:44;13.05;;;7.95;;
789;SDS011;378;48.844;9.156;2023-09-08T04:43:12;14.80;;;8.05;;
789;SDS011;378;48.844;9.156;2023-09-08T04:45:39;15.65;;;8.63;;
789;SDS011;378;48.844;9.156;2023-09-08T04:48:06;10.65;;;7.15;;
789;SDS011;378;48.844;9.156;2023-09-08T04:50:33;12.55;;;7.70;;
789;SDS011;378;48.844;9.156;2023-09-08T04:53:01;12.48;;;7.05;;
789;SDS011;378;48.844;9.156;2023-09-08T04:55:28;12.80;;;7.50;;
789;SDS011;378;48.844;9.156;2023-09-08T04:57:55;11.23;;;6.82;;
789;SDS011;378;48.844;9.156;2023-09-08T05:00:22;11.52;;;6.75;;
789;SDS011;378;48.844;9.156;2023-09-08T05:02:49;12.80;;;7.22;;
789;SDS011;378;48.844;9.156;2023-09-08T05:05:16;14.02;;;7.53;;
789;SDS011;378;48.844;9.156;2023-09-08T05:07:43;14.90;;;7.85;;
789;SDS011;378;48.844;9.156;2023-09-08T05:10:11;11.07;;;7.22;;
789;SDS011;378;48.844;9.156;2023-09-08T05:12:38;14.10;;;7.55;;
789;SDS011;378;48.844;9.156;2023-09-08T05:15:05;16.20;;;7.97;;
789;SDS011;378;48.844;9.156;2023-09-08T05:17:39;13.68;;;7.72;;
789;SDS011;378;48.844;9.156;2023-09-08T05:20:06;13.70;;;6.90;;
789;SDS011;378;48.844;9.156;2023-09-08T05:22:34;12.63;;;6.45;;
789;SDS011;378;48.844;9.156;2023-09-08T05:25:01;13.32;;;7.32;;
789;SDS011;378;48.844;9.156;2023-09-08T05:27:29;9.90;;;6.55;;
789;SDS011;378;48.844;9.156;2023-09-08T05:29:57;11.10;;;6.75;;
789;SDS011;378;48.844;9.156;2023-09-08T05:32:23;13.90;;;6.57;;
789;SDS011;378;48.844;9.156;2023-09-08T05:34:50;8.90;;;6.32;;
789;SDS011;378;48.844;9.156;2023-09-08T05:37:17;15.45;;;7.18;;
789;SDS011;378;48.844;9.156;2023-09-08T05:39:44;13.32;;;7.22;;
789;SDS011;378;48.844;9.156;2023-09-08T05:42:11;10.20;;;6.95;;
789;SDS011;378;48.844;9.156;2023-09-08T05:44:39;12.90;;;6.88;;
789;SDS011;378;48.844;9.156;2023-09-08T05:47:06;12.95;;;6.80;;
789;SDS011;378;48.844;9.156;2023-09-08T05:49:33;11.15;;;6.50;;
789;SDS011;378;48.844;9.156;2023-09-08T05:51:59;12.68;;;7.25;;
789;SDS011;378;48.844;9.156;2023-09-08T05:54:26;13.40;;;6.63;;
789;SDS011;378;48.844;9.156;2023-09-08T05:56:55;27.10;;;9.10;;
789;SDS011;378;48.844;9.156;2023-09-08T05:59:22;18.05;;;8.50;;
789;SDS011;378;48.844;9.156;2023-09-08T06:01:50;14.05;;;7.78;;
789;SDS011;378;48.844;9.156;2023-09-08T06:04:17;16.13;;;8.07;;
789;SDS011;378;48.844;9.156;2023-09-08T06:06:43;13.25;;;8.23;;
789;SDS011;378;48.844;9.156;2023-09-08T06:09:10;14.43;;;7.55;;
789;SDS011;378;48.844;9.156;2023-09-08T06:11:39;11.18;;;7.30;;
789;SDS011;378;48.844;9.156;2023-09-08T06:14:06;15.13;;;7.68;;
789;SDS011;378;48.844;9.156;2023-09-08T06:16:33;12.85;;;7.30;;
789;SDS011;378;48.844;9.156;2023-09-08T06:19:02;14.63;;;7.75;;
789;SDS011;378;48.844;9.156;2023-09-08T06:21:29;13.50;;;8.15;;
789;SDS011;378;48.844;9.156;2023-09-08T06:23:56;11.35;;;7.07;;
789;SDS011;378;48.844;9.156;2023-09-08T06:26:23;16.05;;;8.25;;
789;SDS011;378;48.844;9.156;2023-09-08T06:28:50;12.05;;;7.20;;
789;SDS011;378;48.844;9.156;2023-09-08T06:31:20;14.05;;;8.18;;
789;SDS011;378;48.844;9.156;2023-09-08T06:33:47;19.27;;;7.50;;
789;SDS011;378;48.844;9.156;2023-09-08T06:36:18;11.35;;;7.28;;
789;SDS011;378;48.844;9.156;2023-09-08T06:38:45;12.07;;;7.35;;
789;SDS011;378;48.844;9.156;2023-09-08T06:41:11;19.13;;;7.97;;
789;SDS011;378;48.844;9.156;2023-09-08T06:43:38;14.13;;;7.43;;
789;SDS011;378;48.844;9.156;2023-09-08T06:46:05;11.30;;;6.45;;
789;SDS011;378;48.844;9.156;2023-09-08T06:48:32;18.52;;;7.00;;
789;SDS011;378;48.844;9.156;2023-09-08T06:50:59;14.65;;;7.68;;
789;SDS011;378;48.844;9.156;2023-09-08T06:53:27;14.77;;;7.63;;
789;SDS011;378;48.844;9.156;2023-09-08T06:55:55;13.65;;;7.78;;
789;SDS011;378;48.844;9.156;2023-09-08T06:58:22;11.52;;;6.47;;
789;SDS011;378;48.844;9.156;2023-09-08T07:00:49;14.40;;;7.55;;
789;SDS011;378;48.844;9.156;2023-09-08T07:03:19;14.23;;;7.05;;
789;SDS011;378;48.844;9.156;2023-09-08T07:05:46;12.52;;;6.55;;
789;SDS011;378;48.844;9.156;2023-09-08T07:08:13;10.85;;;6.43;;
789;SDS011;378;48.844;9.156;2023-09-08T07:10:41;13.57;;;7.10;;
789;SDS011;378;48.844;9.156;2023-09-08T07:13:09;12.05;;;6.68;;
789;SDS011;378;48.844;9.156;2023-09-08T07:15:35;11.23;;;5.97;;
789;SDS011;378;48.844;9.156;2023-09-08T07:18:03;11.43;;;6.22;;
789;SDS011;378;48.844;9.156;2023-09-08T07:20:30;15.85;;;7.85;;
789;SDS011;378;48.844;9.156;2023-09-08T07:22:57;11.60;;;7.05;;
789;SDS011;378;48.844;9.156;2023-09-08T07:25:24;10.63;;;6.25;;
789;SDS011;378;48.844;9.156;2023-09-08T07:27:52;16.90;;;7.22;;
789;SDS011;378;48.844;9.156;2023-09-08T07:30:19;12.73;;;6.85;;
789;SDS011;378;48.844;9.156;2023-09-08T07:32:45;10.75;;;6.55;;
789;SDS011;378;48.844;9.156;2023-09-08T07:35:12;11.45;;;5.95;;
789;SDS011;378;48.844;9.156;2023-09-08T07:37:42;11.65;;;6.40;;
789;SDS011;378;48.844;9.156;2023-09-08T07:40:09;14.60;;;7.50;;
789;SDS011;378;48.844;9.156;2023-09-08T07:42:38;9.90;;;5.88;;
789;SDS011;378;48.844;9.156;2023-09-08T07:45:08;10.48;;;6.03;;
789;SDS011;378;48.844;9.156;2023-09-08T07:47:35;9.25;;;5.88;;
789;SDS011;378;48.844;9.156;2023-09-08T07:50:15;9.75;;;5.60;;
789;SDS011;378;48.844;9.156;2023-09-08T07:52:44;6.50;;;4.82;;
789;SDS011;378;48.844;9.156;2023-09-08T07:55:11;7.53;;;5.07;;
789;SDS011;378;48.844;9.156;2023-09-08T07:57:38;6.20;;;4.47;;
789;SDS011;378;48.844;9.156;2023-09-08T08:00:06;11.32;;;6.38;;
789;SDS011;378;48.844;9.156;2023-09-08T08:02:36;10.82;;;5.95;;
789;SDS011;378;48.844;9.156;2023-09-08T08:05:04;10.10;;;6.00;;
789;SDS011;378;48.844;9.156;2023-09-08T08:07:32;11.13;;;5.85;;
789;SDS011;378;48.844;9.156;2023-09-08T08:09:59;11.70;;;5.65;;
789;SDS011;378;48.844;9.156;2023-09-08T08:12:25;6.70;;;4.88;;
789;SDS011;378;48.844;9.156;2023-09-08T08:14:53;13.65;;;5.90;;
789;SDS011;378;48.844;9.156;2023-09-08T08:17:21;8.98;;;5.47;;
789;SDS011;378;48.844;9.156;2023-09-08T08:19:48;9.20;;;5.63;;
789;SDS011;378;48.844;9.156;2023-09-08T08:22:15;9.57;;;5.53;;
789;SDS011;378;48.844;9.156;2023-09-08T08:24:42;10.35;;;5.70;;
789;SDS011;378;48.844;9.156;2023-09-08T08:27:09;8.82;;;5.70;;
789;SDS011;378;48.844;9.156;2023-09-08T08:29:36;8.18;;;5.75;;
789;SDS011;378;48.844;9.156;2023-09-08T08:32:03;9.50;;;5.68;;
789;SDS011;378;48.844;9.156;2023-09-08T08:34:31;9.23;;;5.35;;
789;SDS011;378;48.844;9.156;2023-09-08T08:36:58;10.48;;;5.22;;
789;SDS011;378;48.844;9.156;2023-09-08T08:39:25;11.00;;;5.90;;
789;SDS011;378;48.844;9.156;2023-09-08T08:41:52;10.20;;;5.70;;
789;SDS011;378;48.844;9.156;2023-09-08T08:44:19;9.23;;;5.43;;
789;SDS011;378;48.844;9.156;2023-09-08T08:46:46;7.97;;;5.45;;
789;SDS011;378;48.844;9.156;2023-09-08T08:49:14;8.00;;;5.55;;
789;SDS011;378;48.844;9.156;2023-09-08T08:51:43;8.07;;;5.10;;
789;SDS011;378;48.844;9.156;2023-09-08T08:54:11;9.63;;;5.60;;
789;SDS011;378;48.844;9.156;2023-09-08T08:56:40;8.93;;;5.70;;
789;SDS011;378;48.844;9.156;2023-09-08T08:59:08;8.15;;;5.60;;
789;SDS011;378;48.844;9.156;2023-09-08T09:01:36;7.57;;;5.20;;
789;SDS011;378;48.844;9.156;2023-09-08T09:04:04;7.28;;;4.80;;
789;SDS011;378;48.844;9.156;2023-09-08T09:06:32;7.82;;;4.95;;
789;SDS011;378;48.844;9.156;2023-09-08T09:09:00;9.90;;;5.60;;
789;SDS011;378;48.844;9.156;2023-09-08T09:11:29;10.10;;;5.63;;
789;SDS011;378;48.844;9.156;2023-09-08T09:13:56;11.73;;;5.93;;
789;SDS011;378;48.844;9.156;2023-09-08T09:16:23;8.65;;;5.15;;
789;SDS011;378;48.844;9.156;2023-09-08T09:18:54;6.22;;;4.78;;
789;SDS011;378;48.844;9.156;2023-09-08T09:21:22;8.52;;;5.32;;
789;SDS011;378;48.844;9.156;2023-09-08T09:23:49;10.27;;;5.50;;
789;SDS011;378;48.844;9.156;2023-09-08T09:26:24;9.45;;;5.47;;
789;SDS011;378;48.844;9.156;2023-09-08T09:28:52;7.85;;;4.90;;
789;SDS011;378;48.844;9.156;2023-09-08T09:31:22;12.13;;;5.88;;
789;SDS011;378;48.844;9.156;2023-09-08T09:34:00;6.43;;;4.90;;
789;SDS011;378;48.844;9.156;2023-09-08T09:36:30;7.18;;;4.68;;
789;SDS011;378;48.844;9.156;2023-09-08T09:38:58;8.93;;;5.88;;
789;SDS011;378;48.844;9.156;2023-09-08T09:41:28;9.05;;;5.18;;
789;SDS011;378;48.844;9.156;2023-09-08T09:43:55;9.07;;;5.35;;
789;SDS011;378;48.844;9.156;2023-09-08T09:46:22;6.55;;;4.65;;
789;SDS011;378;48.844;9.156;2023-09-08T09:48:50;6.20;;;4.05;;
789;SDS011;378;48.844;9.156;2023-09-08T09:51:18;5.75;;;4.40;;
789;SDS011;378;48.844;9.156;2023-09-08T09:53:46;7.15;;;4.53;;
789;SDS011;378;48.844;9.156;2023-09-08T09:56:13;13.25;;;5.63;;
789;SDS011;378;48.844;9.156;2023-09-08T09:58:44;8.57;;;4.82;;
789;SDS011;378;48.844;9.156;2023-09-08T10:01:11;6.32;;;4.57;;
789;SDS011;378;48.844;9.156;2023-09-08T10:03:38;7.95;;;4.75;;
789;SDS011;378;48.844;9.156;2023-09-08T10:06:05;10.93;;;4.80;;
789;SDS011;378;48.844;9.156;2023-09-08T10:08:33;8.57;;;4.60;;
789;SDS011;378;48.844;9.156;2023-09-08T10:11:02;5.32;;;4.10;;
789;SDS011;378;48.844;9.156;2023-09-08T10:13:33;11.25;;;5.65;;
789;SDS011;378;48.844;9.156;2023-09-08T10:16:07;7.18;;;5.13;;
789;SDS011;378;48.844;9.156;2023-09-08T10:18:35;6.63;;;4.32;;
789;SDS011;378;48.844;9.156;2023-09-08T10:21:03;7.43;;;5.07;;
789;SDS011;378;48.844;9.156;2023-09-08T10:23:32;7.68;;;4.53;;
789;SDS011;378;48.844;9.156;2023-09-08T10:26:03;7.43;;;4.68;;
789;SDS011;378;48.844;9.156;2023-09-08T10:28:34;6.10;;;4.32;;
789;SDS011;378;48.844;9.156;2023-09-08T10:31:03;5.72;;;4.22;;
789;SDS011;378;48.844;9.156;2023-09-08T10:33:31;6.10;;;4.68;;
789;SDS011;378;48.844;9.156;2023-09-08T10:36:00;9.20;;;5.00;;
789;SDS011;378;48.844;9.156;2023-09-08T10:38:31;6.82;;;4.35;;
789;SDS011;378;48.844;9.156;2023-09-08T10:43:54;7.78;;;4.70;;
789;SDS011;378;48.844;9.156;2023-09-08T10:46:23;7.15;;;4.60;;
789;SDS011;378;48.844;9.156;2023-09-08T10:48:54;5.40;;;4.43;;
789;SDS011;378;48.844;9.156;2023-09-08T10:51:26;6.22;;;4.35;;
789;SDS011;378;48.844;9.156;2023-09-08T10:53:53;6.38;;;4.18;;
789;SDS011;378;48.844;9.156;2023-09-08T10:56:20;7.40;;;4.57;;
789;SDS011;378;48.844;9.156;2023-09-08T10:58:49;8.43;;;5.13;;
789;SDS011;378;48.844;9.156;2023-09-08T11:01:19;5.80;;;3.95;;
789;SDS011;378;48.844;9.156;2023-09-08T11:03:51;10.10;;;4.70;;
789;SDS011;378;48.844;9.156;2023-09-08T11:06:20;10.95;;;4.60;;
789;SDS011;378;48.844;9.156;2023-09-08T11:08:48;7.38;;;4.63;;
789;SDS011;378;48.844;9.156;2023-09-08T11:11:20;6.55;;;4.55;;
789;SDS011;378;48.844;9.156;2023-09-08T11:13:47;8.38;;;4.47;;
789;SDS011;378;48.844;9.156;2023-09-08T11:16:14;5.22;;;4.07;;
789;SDS011;378;48.844;9.156;2023-09-08T11:18:46;6.20;;;4.57;;
789;SDS011;378;48.844;9.156;2023-09-08T11:21:14;7.93;;;4.88;;
789;SDS011;378;48.844;9.156;2023-09-08T11:23:41;6.72;;;4.53;;
789;SDS011;378;48.844;9.156;2023-09-08T11:26:09;7.57;;;4.95;;
789;SDS011;378;48.844;9.156;2023-09-08T11:28:38;8.70;;;4.78;;
789;SDS011;378;48.844;9.156;2023-09-08T11:31:06;5.97;;;4.78;;
789;SDS011;378;48.844;9.156;2023-09-08T11:33:34;6.93;;;4.57;;
789;SDS011;378;48.844;9.156;2023-09-08T11:36:10;6.57;;;4.63;;
789;SDS011;378;48.844;9.156;2023-09-08T11:38:41;7.28;;;5.07;;
789;SDS011;378;48.844;9.156;2023-09-08T11:41:09;9.63;;;4.50;;
789;SDS011;378;48.844;9.156;2023-09-08T11:43:36;9.73;;;4.88;;
789;SDS011;378;48.844;9.156;2023-09-08T11:46:03;7.40;;;4.55;;
789;SDS011;378;48.844;9.156;2023-09-08T11:48:30;11.45;;;4.88;;
789;SDS011;378;48.844;9.156;2023-09-08T11:50:57;8.95;;;4.82;;
789;SDS011;378;48.844;9.156;2023-09-08T11:53:25;9.02;;;4.88;;
789;SDS011;378;48.844;9.156;2023-09-08T11:55:57;5.85;;;5.03;;
789;SDS011;378;48.844;9.156;2023-09-08T11:58:24;8.23;;;4.78;;
789;SDS011;378;48.844;9.156;2023-09-08T12:00:54;6.45;;;4.78;;
789;SDS011;378;48.844;9.156;2023-09-08T12:03:21;9.27;;;5.35;;
789;SDS011;378;48.844;9.156;2023-09-08T12:05:52;5.95;;;4.22;;
789;SDS011;378;48.844;9.156;2023-09-08T12:08:24;7.85;;;5.28;;
789;SDS011;378;48.844;9.156;2023-09-08T12:10:53;7.00;;;4.50;;
789;SDS011;378;48.844;9.156;2023-09-08T12:13:29;10.75;;;4.93;;
789;SDS011;378;48.844;9.156;2023-09-08T12:15:56;7.10;;;4.97;;
789;SDS011;378;48.844;9.156;2023-09-08T12:18:36;7.43;;;5.07;;
789;SDS011;378;48.844;9.156;2023-09-08T12:21:04;5.15;;;4.32;;
789;SDS011;378;48.844;9.156;2023-09-08T12:23:31;7.45;;;4.82;;
789;SDS011;378;48.844;9.156;2023-09-08T12:25:59;6.95;;;4.80;;
789;SDS011;378;48.844;9.156;2023-09-08T12:28:30;7.43;;;5.22;;
789;SDS011;378;48.844;9.156;2023-09-08T12:30:58;8.00;;;4.72;;
789;SDS011;378;48.844;9.156;2023-09-08T12:33:25;6.50;;;4.65;;
789;SDS011;378;48.844;9.156;2023-09-08T12:35:52;9.55;;;4.90;;
789;SDS011;378;48.844;9.156;2023-09-08T12:38:19;6.45;;;4.30;;
789;SDS011;378;48.844;9.156;2023-09-08T12:40:47;5.43;;;4.35;;
789;SDS011;378;48.844;9.156;2023-09-08T12:43:20;8.23;;;4.80;;
789;SDS011;378;48.844;9.156;2023-09-08T12:45:47;5.80;;;4.30;;
789;SDS011;378;48.844;9.156;2023-09-08T12:48:14;6.38;;;4.70;;
789;SDS011;378;48.844;9.156;2023-09-08T12:50:41;5.68;;;4.10;;
789;SDS011;378;48.844;9.156;2023-09-08T12:53:08;6.10;;;4.00;;
789;SDS011;378;48.844;9.156;2023-09-08T12:55:35;7.47;;;4.30;;
789;SDS011;378;48.844;9.156;2023-09-08T12:58:04;7.72;;;5.00;;
789;SDS011;378;48.844;9.156;2023-09-08T13:00:35;5.68;;;4.13;;
789;SDS011;378;48.844;9.156;2023-09-08T13:03:02;6.03;;;4.18;;
789;SDS011;378;48.844;9.156;2023-09-08T13:05:29;6.63;;;4.28;;
789;SDS011;378;48.844;9.156;2023-09-08T13:07:56;6.20;;;4.55;;
789;SDS011;378;48.844;9.156;2023-09-08T13:10:23;5.93;;;4.55;;
789;SDS011;378;48.844;9.156;2023-09-08T13:12:50;7.50;;;4.70;;
789;SDS011;378;48.844;9.156;2023-09-08T13:15:17;5.15;;;4.40;;
789;SDS011;378;48.844;9.156;2023-09-08T13:17:45;7.68;;;4.78;;
789;SDS011;378;48.844;9.156;2023-09-08T13:20:12;8.77;;;4.45;;
789;SDS011;378;48.844;9.156;2023-09-08T13:22:39;8.15;;;4.40;;
789;SDS011;378;48.844;9.156;2023-09-08T13:25:06;5.90;;;4.15;;
789;SDS011;378;48.844;9.156;2023-09-08T13:27:33;5.53;;;4.38;;
789;SDS011;378;48.844;9.156;2023-09-08T13:30:10;5.85;;;4.30;;
789;SDS011;378;48.844;9.156;2023-09-08T13:32:38;10.68;;;4.38;;
789;SDS011;378;48.844;9.156;2023-09-08T13:35:07;7.25;;;4.85;;
789;SDS011;378;48.844;9.156;2023-09-08T13:37:34;10.70;;;4.63;;
789;SDS011;378;48.844;9.156;2023-09-08T13:40:03;4.68;;;3.70;;
789;SDS011;378;48.844;9.156;2023-09-08T13:42:30;5.28;;;4.25;;
789;SDS011;378;48.844;9.156;2023-09-08T13:44:57;5.22;;;3.90;;
789;SDS011;378;48.844;9.156;2023-09-08T13:47:24;6.13;;;4.32;;
789;SDS011;378;48.844;9.156;2023-09-08T13:49:51;6.43;;;4.50;;
789;SDS011;378;48.844;9.156;2023-09-08T13:52:19;5.60;;;4.32;;
789;SDS011;378;48.844;9.156;2023-09-08T13:54:46;6.43;;;4.07;;
789;SDS011;378;48.844;9.156;2023-09-08T13:57:13;6.28;;;4.20;;
789;SDS011;378;48.844;9.156;2023-09-08T13:59:40;12.30;;;4.57;;
789;SDS011;378;48.844;9.156;2023-09-08T14:02:07;6.68;;;4.10;;
789;SDS011;378;48.844;9.156;2023-09-08T14:04:34;5.05;;;4.05;;
789;SDS011;378;48.844;9.156;2023-09-08T14:07:00;7.47;;;4.18;;
789;SDS011;378;48.844;9.156;2023-09-08T14:09:29;7.75;;;4.20;;
789;SDS011;378;48.844;9.156;2023-09-08T14:11:56;6.18;;;4.50;;
789;SDS011;378;48.844;9.156;2023-09-08T14:14:23;7.10;;;4.30;;
789;SDS011;378;48.844;9.156;2023-09-08T14:16:50;4.10;;;3.65;;
789;SDS011;378;48.844;9.156;2023-09-08T14:19:17;5.88;;;4.22;;
789;SDS011;378;48.844;9.156;2023-09-08T14:21:44;4.50;;;3.75;;
789;SDS011;378;48.844;9.156;2023-09-08T14:24:10;6.15;;;4.15;;
789;SDS011;378;48.844;9.156;2023-09-08T14:26:38;6.22;;;3.78;;
789;SDS011;378;48.844;9.156;2023-09-08T14:29:05;7.63;;;4.05;;
789;SDS011;378;48.844;9.156;2023-09-08T14:31:34;5.35;;;3.72;;
789;SDS011;378;48.844;9.156;2023-09-08T14:34:01;4.95;;;3.88;;
789;SDS011;378;48.844;9.156;2023-09-08T14:36:29;5.45;;;3.83;;
789;SDS011;378;48.844;9.156;2023-09-08T14:38:56;5.15;;;4.07;;
789;SDS011;378;48.844;9.156;2023-09-08T14:41:22;4.50;;;3.53;;
789;SDS011;378;48.844;9.156;2023-09-08T14:43:51;6.28;;;3.45;;
789;SDS011;378;48.844;9.156;2023-09-08T14:46:18;4.45;;;3.65;;
789;SDS011;378;48.844;9.156;2023-09-08T14:48:46;6.80;;;4.38;;
789;SDS011;378;48.844;9.156;2023-09-08T14:51:13;6.40;;;3.88;;
789;SDS011;378;48.844;9.156;2023-09-08T14:53:43;8.50;;;4.63;;
789;SDS011;378;48.844;9.156;2023-09-08T14:56:10;6.97;;;4.10;;
789;SDS011;378;48.844;9.156;2023-09-08T14:58:37;5.35;;;4.25;;
789;SDS011;378;48.844;9.156;2023-09-08T15:01:05;4.90;;;4.20;;
789;SDS011;378;48.844;9.156;2023-09-08T15:03:33;7.68;;;4.45;;
789;SDS011;378;48.844;9.156;2023-09-08T15:06:00;7.03;;;3.97;;
789;SDS011;378;48.844;9.156;2023-09-08T15:08:27;6.13;;;4.00;;
789;SDS011;378;48.844;9.156;2023-09-08T15:10:57;8.13;;;4.20;;
789;SDS011;378;48.844;9.156;2023-09-08T15:13:24;5.50;;;4.07;;
789;SDS011;378;48.844;9.156;2023-09-08T15:15:50;6.63;;;4.00;;
789;SDS011;378;48.844;9.156;2023-09-08T15:18:19;5.13;;;3.80;;
789;SDS011;378;48.844;9.156;2023-09-08T15:20:51;5.32;;;3.85;;
789;SDS011;378;48.844;9.156;2023-09-08T15:23:18;7.28;;;4.18;;
789;SDS011;378;48.844;9.156;2023-09-08T15:25:56;4.80;;;3.63;;
789;SDS011;378;48.844;9.156;2023-09-08T15:28:24;5.85;;;4.15;;
789;SDS011;378;48.844;9.156;2023-09-08T15:30:52;5.45;;;3.80;;
789;SDS011;378;48.844;9.156;2023-09-08T15:33:21;5.75;;;3.88;;
789;SDS011;378;48.844;9.156;2023-09-08T15:35:48;6.22;;;4.22;;
789;SDS011;378;48.844;9.156;2023-09-08T15:38:16;5.78;;;3.80;;
789;SDS011;378;48.844;9.156;2023-09-08T15:43:56;5.32;;;3.30;;
789;SDS011;378;48.844;9.156;2023-09-08T15:46:23;6.35;;;4.05;;
789;SDS011;378;48.844;9.156;2023-09-08T15:48:52;5.07;;;3.83;;
789;SDS011;378;48.844;9.156;2023-09-08T15:51:19;5.65;;;4.28;;